Time;durP1;ratioP1;P1;durP2;ratioP2;P2;SDS_P1;SDS_P2;PMS_P1;PMS_P2;Temp;Humidity;BMP_temperature;BMP_pressure;BME280_temperature;BME280_humidity;BME280_pressure;Samples;Min_cycle;Max_cycle;Signal;HPM_P1;HPM_P2
2021/09/05 00:11:29;;;;;;;10.07;5.13;;;;;;;24.41;38.51;100535.28;31074619;28;20054;-31
2021/09/05 00:26:32;;;;;;;7.27;4.47;;;;;;;24.37;37.96;100542.34;31052225;28;20054;-34
2021/09/05 00:41:34;;;;;;;;;;;;;;;24.35;36.92;100544.88;31060062;28;20046;-33
2021/09/05 00:56:38;;;;;;;8.45;4.38;;;;;;;24.34;36.44;100554.44;31047949;28;19921;-31
2021/09/05 01:11:40;;;;;;;8.15;4.47;;;;;;;24.33;36.64;100575.16;31074667;28;20042;-33
2021/09/05 01:26:44;;;;;;;8.00;4.17;;;;;;;24.32;36.40;100576.41;31085898;28;20058;-32
2021/09/05 01:41:47;;;;;;;6.53;4.28;;;;;;;24.32;36.18;100590.28;31070981;28;20050;-33
2021/09/05 01:56:49;;;;;;;10.80;4.67;;;;;;;24.28;36.37;100601.63;31085104;28;20050;-32
2021/09/05 02:11:52;;;;;;;5.60;3.63;;;;;;;24.23;36.02;100615.44;31079208;28;20437;-32
2021/09/05 02:26:54;;;;;;;5.72;3.35;;;;;;;24.21;35.32;100620.72;31080641;28;20060;-32
2021/09/05 02:41:56;;;;;;;7.80;3.73;;;;;;;24.16;35.01;100633.31;31087078;28;20125;-32
2021/09/05 02:56:57;;;;;;;10.17;4.20;;;;;;;24.14;35.12;100641.38;31073386;28;20560;-31
2021/09/05 03:11:59;;;;;;;8.18;4.45;;;;;;;24.11;34.83;100676.41;31070629;28;20046;-32
2021/09/05 03:27:01;;;;;;;7.23;4.30;;;;;;;24.09;34.78;100678.91;31071865;28;20054;-32
2021/09/05 03:42:04;;;;;;;5.77;3.60;;;;;;;24.10;34.62;100702.63;31058235;28;20458;-32
2021/09/05 03:57:06;;;;;;;7.05;3.63;;;;;;;24.12;34.22;100704.91;31063576;28;20062;-31
2021/09/05 04:12:08;;;;;;;8.17;3.80;;;;;;;24.22;34.45;100713.78;31075205;28;20043;-31
2021/09/05 04:27:10;;;;;;;7.87;3.93;;;;;;;24.36;34.02;100723.94;31057294;28;20058;-31
2021/09/05 04:42:12;;;;;;;9.30;4.43;;;;;;;24.52;34.00;100726.03;31067668;28;20789;-32
2021/09/05 04:57:14;;;;;;;8.57;3.40;;;;;;;24.70;34.36;100736.69;31098049;28;20056;-34
2021/09/05 05:12:16;;;;;;;9.77;3.60;;;;;;;24.87;34.75;100752.59;31079205;28;20050;-33
2021/09/05 05:27:17;;;;;;;8.50;4.10;;;;;;;25.04;34.52;100767.31;31090682;28;20498;-35
2021/09/05 05:42:19;;;;;;;10.23;3.70;;;;;;;25.18;34.56;100769.09;31067284;28;20049;-32
2021/09/05 05:57:21;;;;;;;8.13;3.40;;;;;;;25.29;35.54;100769.09;31082589;28;20127;-32
2021/09/05 06:12:23;;;;;;;8.93;4.27;;;;;;;25.37;35.95;100781.25;31065617;28;20506;-31
2021/09/05 06:27:25;;;;;;;6.80;2.87;;;;;;;25.42;34.48;100780.50;31083207;28;20054;-31
2021/09/05 06:42:27;;;;;;;6.27;2.53;;;;;;;25.48;34.89;100803.50;31080065;28;20050;-35
2021/09/05 06:57:28;;;;;;;5.97;2.27;;;;;;;25.57;33.43;100821.16;31062495;28;20053;-34
2021/09/05 07:12:30;;;;;;;5.73;2.00;;;;;;;25.68;34.28;100832.31;31052864;28;20057;-34
2021/09/05 07:27:32;;;;;;;5.20;2.37;;;;;;;25.72;31.70;100824.50;31075981;28;20057;-32
2021/09/05 07:42:34;;;;;;;4.10;2.07;;;;;;;25.73;31.51;100824.00;31074853;28;20407;-32
2021/09/05 07:57:36;;;;;;;2.70;1.40;;;;;;;25.76;31.25;100836.84;31066146;28;20046;-35
2021/09/05 08:12:38;;;;;;;3.60;1.17;;;;;;;25.51;27.96;100831.53;31056259;28;20125;-34
2021/09/05 08:27:40;;;;;;;3.67;1.03;;;;;;;25.44;25.23;100833.53;31100815;28;20049;-31
2021/09/05 08:42:43;;;;;;;2.33;0.80;;;;;;;25.33;25.70;100825.19;31083777;28;20053;-31
2021/09/05 08:57:45;;;;;;;2.20;1.40;;;;;;;25.23;24.69;100821.16;31088734;28;20057;-30
2021/09/05 09:12:48;;;;;;;4.03;1.30;;;;;;;25.09;25.84;100822.13;31085407;28;20533;-33
2021/09/05 09:27:50;;;;;;;1.67;0.90;;;;;;;25.01;25.24;100813.53;31082015;28;20418;-34
2021/09/05 09:42:52;;;;;;;1.37;0.83;;;;;;;27.92;20.72;100829.28;31094350;28;20049;-38
2021/09/05 09:57:54;;;;;;;4.07;1.30;;;;;;;29.05;21.21;100833.09;31072319;28;20058;-31
2021/09/05 10:12:56;;;;;;;1.87;1.30;;;;;;;27.05;22.72;100836.53;31082940;28;20046;-30
2021/09/05 10:27:58;;;;;;;9.07;1.97;;;;;;;26.02;23.97;100839.38;31084511;28;20056;-30
2021/09/05 10:43:00;;;;;;;3.23;1.50;;;;;;;25.44;24.13;100836.31;31071267;28;20971;-31
2021/09/05 10:58:02;;;;;;;7.03;1.77;;;;;;;25.15;23.67;100839.56;31075939;28;20093;-28
2021/09/05 11:13:04;;;;;;;3.40;2.27;;;;;;;25.00;23.46;100830.69;31075715;28;20045;-31
2021/09/05 11:28:10;;;;;;;1.60;1.10;;;;;;;24.70;22.96;100838.63;31095887;28;20054;-34
2021/09/05 11:43:32;;;;;;;3.42;1.30;;;;;;;24.62;24.18;100824.47;31061710;28;20446;-33
2021/09/05 11:58:35;;;;;;;1.87;1.20;;;;;;;24.82;26.15;100821.50;31049689;28;20058;-30
2021/09/05 12:13:58;;;;;;;1.58;0.82;;;;;;;24.79;24.19;100808.66;31059737;28;20045;-33
